Wetterdaten: Woche 16.02.15 - 22.02.15 (KW8)
Datum Zeit Temp. A. Feuchte A. Luftdruck Regen Wind Richtung Sonnenschein ET UV Solar Taupunkt Windchill Windben Empfang
16.02.2015 00:00 -3,3 C 80 % 1016,5 hPa 0,0 l/m 0,0 km/h (0 Bft) N 0,00 h 0,000 mm 0,0 UV-I 0 W/m -6,2 C -3,3 C 0,0 km/h (0 Bft) 0,00 %
16.02.2015 01:00 -3,6 C 81 % 1017,0 hPa 0,0 l/m 0,0 km/h (0 Bft) N 0,00 h 0,000 mm 0,0 UV-I 0 W/m -6,4 C -3,6 C 0,0 km/h (0 Bft) 0,00 %
16.02.2015 02:00 -3,9 C 81 % 1017,4 hPa 0,0 l/m 0,0 km/h (0 Bft) N 0,00 h 0,000 mm 0,0 UV-I 0 W/m -6,7 C -3,9 C 0,0 km/h (0 Bft) 0,00 %
16.02.2015 03:00 -4,5 C 82 % 1017,7 hPa 0,0 l/m 0,0 km/h (0 Bft) N 0,00 h 0,000 mm 0,0 UV-I 0 W/m -7,2 C -4,5 C 0,0 km/h (0 Bft) 0,00 %
16.02.2015 04:00 -5,0 C 81 % 1018,3 hPa 0,0 l/m 0,0 km/h (0 Bft) N 0,00 h 0,000 mm 0,0 UV-I 0 W/m -7,8 C -5,0 C 0,0 km/h (0 Bft) 0,00 %
16.02.2015 05:00 -5,3 C 81 % 1018,7 hPa 0,0 l/m 0,0 km/h (0 Bft) N 0,00 h 0,000 mm 0,0 UV-I 0 W/m -8,1 C -5,3 C 0,0 km/h (0 Bft) 0,00 %
16.02.2015 06:00 -5,6 C 81 % 1019,2 hPa 0,0 l/m 0,0 km/h (0 Bft) N 0,00 h 0,000 mm 0,0 UV-I 0 W/m -8,3 C -5,6 C 0,0 km/h (0 Bft) 0,00 %
16.02.2015 07:00 -5,6 C 81 % 1020,0 hPa 0,0 l/m 0,0 km/h (0 Bft) N 0,00 h 0,000 mm 0,0 UV-I 22 W/m -8,4 C -5,6 C 0,0 km/h (0 Bft) 0,00 %
16.02.2015 08:00 -3,8 C 80 % 1020,0 hPa 0,0 l/m 0,0 km/h (0 Bft) N 0,00 h 0,000 mm 1,0 UV-I 93 W/m -6,7 C -3,8 C 0,0 km/h (0 Bft) 0,00 %
16.02.2015 09:00 -0,8 C 77 % 1019,8 hPa 0,0 l/m 0,0 km/h (0 Bft) N 0,00 h 0,000 mm 1,7 UV-I 160 W/m -4,4 C -0,8 C 0,0 km/h (0 Bft) 0,00 %
16.02.2015 10:00 0,7 C 70 % 1019,6 hPa 0,3 l/m 0,0 km/h (0 Bft) N 0,00 h 0,000 mm 2,0 UV-I 184 W/m -4,1 C 0,7 C 0,0 km/h (0 Bft) 0,00 %
16.02.2015 11:00 2,0 C 70 % 1019,1 hPa 0,0 l/m 0,0 km/h (0 Bft) N 0,00 h 0,000 mm 2,0 UV-I 244 W/m -2,8 C 2,0 C 0,0 km/h (0 Bft) 0,00 %
16.02.2015 12:00 3,9 C 68 % 1017,6 hPa 0,0 l/m 2,3 km/h (1 Bft) O-SO 0,00 h 0,000 mm 2,0 UV-I 251 W/m -1,5 C 3,7 C 3,0 km/h (1 Bft) 0,00 %
16.02.2015 13:00 5,9 C 59 % 1017,0 hPa 0,0 l/m 4,0 km/h (1 Bft) O 0,25 h 0,000 mm 2,0 UV-I 263 W/m -1,5 C 5,9 C 5,9 km/h (2 Bft) 0,00 %
16.02.2015 14:00 6,9 C 58 % 1016,4 hPa 0,0 l/m 3,7 km/h (1 Bft) O-SO 0,25 h 0,000 mm 1,7 UV-I 226 W/m -0,8 C 6,9 C 6,9 km/h (2 Bft) 0,00 %
16.02.2015 15:00 7,6 C 57 % 1016,3 hPa 0,0 l/m 0,6 km/h (0 Bft) N 0,25 h 0,000 mm 1,0 UV-I 131 W/m -0,3 C 7,6 C 4,0 km/h (1 Bft) 0,00 %
16.02.2015 16:00 8,0 C 55 % 1017,4 hPa 0,0 l/m 0,0 km/h (0 Bft) N 1,00 h 0,000 mm 1,0 UV-I 143 W/m -0,5 C 8,0 C 0,0 km/h (0 Bft) 0,00 %
16.02.2015 17:00 5,4 C 67 % 1018,0 hPa 0,0 l/m 0,0 km/h (0 Bft) N 0,50 h 0,000 mm 0,0 UV-I 10 W/m -0,4 C 5,4 C 0,0 km/h (0 Bft) 0,00 %
16.02.2015 18:00 2,2 C 75 % 1019,2 hPa 0,0 l/m 0,0 km/h (0 Bft) N 0,00 h 0,000 mm 0,0 UV-I 0 W/m -1,8 C 2,2 C 0,0 km/h (0 Bft) 0,00 %
16.02.2015 19:00 1,0 C 77 % 1019,8 hPa 0,0 l/m 0,0 km/h (0 Bft) N 0,00 h 0,000 mm 0,0 UV-I 0 W/m -2,6 C 1,0 C 0,0 km/h (0 Bft) 0,00 %
16.02.2015 20:00 0,3 C 80 % 1020,5 hPa 0,0 l/m 0,0 km/h (0 Bft) N 0,00 h 0,000 mm 0,0 UV-I 0 W/m -2,8 C 0,3 C 0,0 km/h (0 Bft) 0,00 %
16.02.2015 21:00 0,3 C 75 % 1020,9 hPa 0,0 l/m 0,0 km/h (0 Bft) N 0,00 h 0,000 mm 0,0 UV-I 0 W/m -3,6 C 0,3 C 0,0 km/h (0 Bft) 0,00 %
16.02.2015 22:00 0,3 C 72 % 1021,3 hPa 0,0 l/m 0,0 km/h (0 Bft) N 0,00 h 0,000 mm 0,0 UV-I 0 W/m -4,1 C 0,3 C 0,0 km/h (0 Bft) 0,00 %
16.02.2015 23:00 0,1 C 72 % 1021,6 hPa 0,0 l/m 0,0 km/h (0 Bft) N 0,00 h 0,000 mm 0,0 UV-I 0 W/m -4,5 C 0,1 C 0,0 km/h (0 Bft) 0,00 %
17.02.2015 00:00 -1,0 C 77 % 1022,4 hPa 0,0 l/m 0,0 km/h (0 Bft) N 0,00 h 0,000 mm 0,0 UV-I 0 W/m -4,6 C -1,0 C 0,0 km/h (0 Bft) 0,00 %
17.02.2015 01:00 -1,9 C 80 % 1023,2 hPa 0,0 l/m 0,0 km/h (0 Bft) N 0,00 h 0,000 mm 0,0 UV-I 0 W/m -4,9 C -1,9 C 0,0 km/h (0 Bft) 0,00 %
17.02.2015 02:00 -2,6 C 78 % 1023,6 hPa 0,0 l/m 0,0 km/h (0 Bft) N 0,00 h 0,000 mm 0,0 UV-I 0 W/m -5,9 C -2,6 C 0,0 km/h (0 Bft) 0,00 %
17.02.2015 03:00 -3,4 C 79 % 1023,9 hPa 0,0 l/m 0,0 km/h (0 Bft) N 0,00 h 0,000 mm 0,0 UV-I 0 W/m -6,5 C -3,4 C 0,0 km/h (0 Bft) 0,00 %
17.02.2015 04:00 -3,6 C 80 % 1024,6 hPa 0,0 l/m 0,0 km/h (0 Bft) N 0,00 h 0,000 mm 0,0 UV-I 0 W/m -6,5 C -3,6 C 0,0 km/h (0 Bft) 0,00 %
17.02.2015 05:00 -3,6 C 81 % 1025,2 hPa 0,0 l/m 0,0 km/h (0 Bft) N 0,00 h 0,000 mm 0,0 UV-I 0 W/m -6,4 C -3,6 C 0,0 km/h (0 Bft) 0,00 %
17.02.2015 06:00 -4,0 C 81 % 1025,9 hPa 0,0 l/m 0,0 km/h (0 Bft) N 0,00 h 0,000 mm 0,0 UV-I 0 W/m -6,8 C -4,0 C 0,0 km/h (0 Bft) 0,00 %
17.02.2015 07:00 -3,8 C 81 % 1027,0 hPa 0,0 l/m 0,0 km/h (0 Bft) N 0,00 h 0,000 mm 0,0 UV-I 24 W/m -6,7 C -3,8 C 0,0 km/h (0 Bft) 0,00 %
17.02.2015 08:00 -0,7 C 79 % 1027,5 hPa 0,0 l/m 0,2 km/h (0 Bft) O-SO 1,00 h 0,000 mm 1,0 UV-I 196 W/m -4,0 C -0,7 C 1,0 km/h (0 Bft) 0,00 %
17.02.2015 09:00 1,5 C 67 % 1028,1 hPa 0,0 l/m 2,7 km/h (1 Bft) O 1,00 h 0,000 mm 1,7 UV-I 330 W/m -4,0 C 1,5 C 5,0 km/h (1 Bft) 0,00 %
17.02.2015 10:00 2,3 C 66 % 1028,8 hPa 0,0 l/m 4,1 km/h (1 Bft) O 1,00 h 0,000 mm 2,0 UV-I 398 W/m -3,5 C 2,2 C 5,9 km/h (2 Bft) 0,00 %
17.02.2015 11:00 3,0 C 66 % 1029,4 hPa 0,0 l/m 2,2 km/h (1 Bft) O-SO 1,00 h 0,000 mm 2,0 UV-I 467 W/m -2,6 C 3,0 C 5,0 km/h (1 Bft) 0,00 %
17.02.2015 12:00 4,0 C 63 % 1029,6 hPa 0,0 l/m 3,8 km/h (1 Bft) SO 1,00 h 0,000 mm 2,0 UV-I 462 W/m -2,4 C 4,0 C 5,9 km/h (2 Bft) 0,00 %
17.02.2015 13:00 4,7 C 61 % 1029,9 hPa 0,0 l/m 0,3 km/h (0 Bft) O 1,00 h 0,000 mm 2,0 UV-I 391 W/m -2,2 C 4,7 C 1,0 km/h (0 Bft) 0,00 %
17.02.2015 14:00 5,2 C 61 % 1030,1 hPa 0,0 l/m 0,3 km/h (0 Bft) N 1,00 h 0,000 mm 1,7 UV-I 274 W/m -1,7 C 5,2 C 1,0 km/h (0 Bft) 0,00 %
17.02.2015 15:00 5,4 C 62 % 1030,5 hPa 0,0 l/m 0,1 km/h (0 Bft) N 0,75 h 0,000 mm 1,0 UV-I 186 W/m -1,4 C 5,4 C 1,0 km/h (0 Bft) 0,00 %
17.02.2015 16:00 5,3 C 61 % 1030,9 hPa 0,0 l/m 0,0 km/h (0 Bft) N 1,00 h 0,000 mm 1,0 UV-I 139 W/m -1,6 C 5,3 C 0,0 km/h (0 Bft) 0,00 %
17.02.2015 17:00 3,9 C 66 % 1031,9 hPa 0,0 l/m 0,2 km/h (0 Bft) N 0,00 h 0,000 mm 0,0 UV-I 0 W/m -2,0 C 3,9 C 2,0 km/h (1 Bft) 0,00 %
17.02.2015 18:00 2,0 C 72 % 1033,3 hPa 0,0 l/m 0,0 km/h (0 Bft) N 0,00 h 0,000 mm 0,0 UV-I 0 W/m -2,5 C 2,0 C 0,0 km/h (0 Bft) 0,00 %
17.02.2015 19:00 0,7 C 76 % 1034,6 hPa 0,0 l/m 0,0 km/h (0 Bft) N 0,00 h 0,000 mm 0,0 UV-I 0 W/m -3,0 C 0,7 C 0,0 km/h (0 Bft) 0,00 %
17.02.2015 20:00 0,9 C 72 % 1035,6 hPa 0,0 l/m 0,0 km/h (0 Bft) N 0,00 h 0,000 mm 0,0 UV-I 0 W/m -3,6 C 0,9 C 0,0 km/h (0 Bft) 0,00 %
17.02.2015 21:00 -0,2 C 77 % 1037,0 hPa 0,0 l/m 0,0 km/h (0 Bft) N 0,00 h 0,000 mm 0,0 UV-I 0 W/m -3,7 C -0,2 C 0,0 km/h (0 Bft) 0,00 %
17.02.2015 22:00 -1,2 C 82 % 1038,2 hPa 0,0 l/m 0,0 km/h (0 Bft) N 0,00 h 0,000 mm 0,0 UV-I 0 W/m -3,9 C -1,2 C 0,0 km/h (0 Bft) 0,00 %
17.02.2015 23:00 -1,2 C 83 % 1039,1 hPa 0,0 l/m 0,3 km/h (0 Bft) W-SW 0,00 h 0,000 mm 0,0 UV-I 0 W/m -3,7 C -1,2 C 1,0 km/h (0 Bft) 0,00 %
18.02.2015 00:00 -0,8 C 83 % 1039,7 hPa 0,0 l/m 0,3 km/h (0 Bft) SW 0,00 h 0,000 mm 0,0 UV-I 0 W/m -3,3 C -0,8 C 1,0 km/h (0 Bft) 0,00 %
18.02.2015 01:00 -1,0 C 83 % 1040,3 hPa 0,0 l/m 1,8 km/h (1 Bft) SW 0,00 h 0,000 mm 0,0 UV-I 0 W/m -3,5 C -1,0 C 3,0 km/h (1 Bft) 0,00 %
18.02.2015 02:00 -1,0 C 83 % 1040,5 hPa 0,0 l/m 0,1 km/h (0 Bft) N 0,00 h 0,000 mm 0,0 UV-I 0 W/m -3,5 C -1,0 C 1,0 km/h (0 Bft) 0,00 %
18.02.2015 03:00 -0,9 C 84 % 1040,5 hPa 0,0 l/m 0,1 km/h (0 Bft) N 0,00 h 0,000 mm 0,0 UV-I 0 W/m -3,3 C -0,9 C 1,0 km/h (0 Bft) 0,00 %
18.02.2015 04:00 -0,9 C 84 % 1040,8 hPa 0,0 l/m 0,1 km/h (0 Bft) N 0,00 h 0,000 mm 0,0 UV-I 0 W/m -3,3 C -0,9 C 1,0 km/h (0 Bft) 0,00 %
18.02.2015 05:00 -1,0 C 85 % 1041,0 hPa 0,0 l/m 0,0 km/h (0 Bft) N 0,00 h 0,000 mm 0,0 UV-I 0 W/m -3,2 C -1,0 C 0,0 km/h (0 Bft) 0,00 %
18.02.2015 06:00 -1,1 C 85 % 1041,3 hPa 0,0 l/m 0,0 km/h (0 Bft) N 0,00 h 0,000 mm 0,0 UV-I 0 W/m -3,3 C -1,1 C 0,0 km/h (0 Bft) 0,00 %
18.02.2015 07:00 -1,1 C 84 % 1041,9 hPa 0,0 l/m 0,0 km/h (0 Bft) N 0,00 h 0,000 mm 0,0 UV-I 0 W/m -3,4 C -1,1 C 0,0 km/h (0 Bft) 0,00 %
18.02.2015 08:00 -1,0 C 84 % 1042,2 hPa 0,0 l/m 0,0 km/h (0 Bft) N 0,00 h 0,000 mm 0,0 UV-I 11 W/m -3,5 C -1,0 C 0,0 km/h (0 Bft) 0,00 %
18.02.2015 09:00 -0,8 C 82 % 1042,6 hPa 0,0 l/m 0,0 km/h (0 Bft) N 0,00 h 0,000 mm 1,0 UV-I 32 W/m -3,5 C -0,8 C 0,0 km/h (0 Bft) 0,00 %
18.02.2015 10:00 -0,3 C 77 % 1042,5 hPa 0,0 l/m 0,0 km/h (0 Bft) N 0,00 h 0,000 mm 1,0 UV-I 80 W/m -3,9 C -0,3 C 0,0 km/h (0 Bft) 0,00 %
18.02.2015 11:00 0,6 C 71 % 1042,4 hPa 0,3 l/m 0,0 km/h (0 Bft) N 0,00 h 0,000 mm 1,7 UV-I 129 W/m -4,1 C 0,6 C 0,0 km/h (0 Bft) 0,00 %
18.02.2015 12:00 1,2 C 69 % 1041,6 hPa 0,0 l/m 0,1 km/h (0 Bft) N 0,00 h 0,000 mm 1,3 UV-I 135 W/m -3,9 C 1,2 C 1,0 km/h (0 Bft) 0,00 %
18.02.2015 13:00 1,3 C 68 % 1040,9 hPa 0,0 l/m 0,0 km/h (0 Bft) N 0,00 h 0,000 mm 1,0 UV-I 122 W/m -4,0 C 1,3 C 0,0 km/h (0 Bft) 0,00 %
18.02.2015 14:00 0,9 C 69 % 1040,4 hPa 0,0 l/m 0,0 km/h (0 Bft) N 0,00 h 0,000 mm 1,0 UV-I 73 W/m -4,1 C 0,9 C 0,0 km/h (0 Bft) 0,00 %
18.02.2015 15:00 0,6 C 70 % 1039,7 hPa 0,0 l/m 0,0 km/h (0 Bft) N 0,00 h 0,000 mm 1,0 UV-I 47 W/m -4,3 C 0,6 C 0,0 km/h (0 Bft) 0,00 %
18.02.2015 16:00 0,3 C 71 % 1039,4 hPa 0,0 l/m 0,0 km/h (0 Bft) N 0,00 h 0,000 mm 0,0 UV-I 23 W/m -4,4 C 0,3 C 0,0 km/h (0 Bft) 0,00 %
18.02.2015 17:00 -0,2 C 72 % 1039,3 hPa 0,0 l/m 0,2 km/h (0 Bft) N 0,00 h 0,000 mm 0,0 UV-I 0 W/m -4,6 C -0,2 C 1,0 km/h (0 Bft) 0,00 %
18.02.2015 18:00 -0,3 C 73 % 1039,5 hPa 0,0 l/m 0,0 km/h (0 Bft) N 0,00 h 0,000 mm 0,0 UV-I 0 W/m -4,5 C -0,3 C 0,0 km/h (0 Bft) 0,00 %
18.02.2015 19:00 -0,3 C 74 % 1039,1 hPa 0,0 l/m 0,0 km/h (0 Bft) N 0,00 h 0,000 mm 0,0 UV-I 0 W/m -4,4 C -0,3 C 0,0 km/h (0 Bft) 0,00 %
18.02.2015 20:00 -0,2 C 73 % 1038,9 hPa 0,0 l/m 0,1 km/h (0 Bft) N 0,00 h 0,000 mm 0,0 UV-I 0 W/m -4,5 C -0,2 C 1,0 km/h (0 Bft) 0,00 %
18.02.2015 21:00 -0,1 C 71 % 1038,9 hPa 0,0 l/m 0,3 km/h (0 Bft) N 0,00 h 0,000 mm 0,0 UV-I 0 W/m -4,7 C -0,1 C 2,0 km/h (1 Bft) 0,00 %
18.02.2015 22:00 -0,2 C 71 % 1038,8 hPa 0,0 l/m 0,4 km/h (0 Bft) O-SO 0,00 h 0,000 mm 0,0 UV-I 0 W/m -4,9 C -0,2 C 2,0 km/h (1 Bft) 0,00 %
18.02.2015 23:00 -0,4 C 72 % 1038,1 hPa 0,0 l/m 0,0 km/h (0 Bft) N 0,00 h 0,000 mm 0,0 UV-I 0 W/m -4,9 C -0,4 C 0,0 km/h (0 Bft) 0,00 %
19.02.2015 00:00 -0,5 C 73 % 1037,9 hPa 0,0 l/m 0,0 km/h (0 Bft) N 0,00 h 0,000 mm 0,0 UV-I 0 W/m -4,8 C -0,5 C 0,0 km/h (0 Bft) 0,00 %
19.02.2015 01:00 -0,7 C 74 % 1037,6 hPa 0,0 l/m 0,0 km/h (0 Bft) N 0,00 h 0,000 mm 0,0 UV-I 0 W/m -4,7 C -0,7 C 0,0 km/h (0 Bft) 0,00 %
19.02.2015 02:00 -0,9 C 75 % 1036,9 hPa 0,0 l/m 0,0 km/h (0 Bft) N 0,00 h 0,000 mm 0,0 UV-I 0 W/m -4,8 C -0,9 C 0,0 km/h (0 Bft) 0,00 %
19.02.2015 03:00 -1,0 C 77 % 1036,2 hPa 0,0 l/m 0,2 km/h (0 Bft) N 0,00 h 0,000 mm 0,0 UV-I 0 W/m -4,6 C -1,0 C 1,0 km/h (0 Bft) 0,00 %
19.02.2015 04:00 -1,2 C 76 % 1035,6 hPa 0,0 l/m 0,4 km/h (0 Bft) W-SW 0,00 h 0,000 mm 0,0 UV-I 0 W/m -4,9 C -1,2 C 1,0 km/h (0 Bft) 0,00 %
19.02.2015 05:00 -1,3 C 77 % 1035,2 hPa 0,0 l/m 0,0 km/h (0 Bft) N 0,00 h 0,000 mm 0,0 UV-I 0 W/m -4,9 C -1,3 C 0,0 km/h (0 Bft) 0,00 %
19.02.2015 06:00 -1,5 C 78 % 1035,2 hPa 0,0 l/m 0,0 km/h (0 Bft) N 0,00 h 0,000 mm 0,0 UV-I 0 W/m -4,9 C -1,5 C 0,0 km/h (0 Bft) 0,00 %
19.02.2015 07:00 -1,7 C 80 % 1035,3 hPa 0,0 l/m 0,0 km/h (0 Bft) N 0,00 h 0,000 mm 0,0 UV-I 1 W/m -4,7 C -1,7 C 0,0 km/h (0 Bft) 0,00 %
19.02.2015 08:00 -1,8 C 79 % 1035,4 hPa 0,0 l/m 0,0 km/h (0 Bft) N 0,00 h 0,000 mm 0,0 UV-I 23 W/m -4,9 C -1,8 C 0,0 km/h (0 Bft) 0,00 %
19.02.2015 09:00 -1,5 C 78 % 1035,3 hPa 0,0 l/m 0,0 km/h (0 Bft) N 0,00 h 0,000 mm 1,0 UV-I 46 W/m -4,9 C -1,5 C 0,0 km/h (0 Bft) 0,00 %
19.02.2015 10:00 -1,0 C 75 % 1035,1 hPa 0,0 l/m 0,0 km/h (0 Bft) N 0,00 h 0,000 mm 1,0 UV-I 80 W/m -5,0 C -1,0 C 0,0 km/h (0 Bft) 0,00 %
19.02.2015 11:00 -0,4 C 71 % 1034,5 hPa 0,0 l/m 0,0 km/h (0 Bft) N 0,00 h 0,000 mm 1,3 UV-I 122 W/m -5,0 C -0,4 C 0,0 km/h (0 Bft) 0,00 %
19.02.2015 12:00 0,2 C 67 % 1033,6 hPa 0,0 l/m 0,0 km/h (0 Bft) N 0,00 h 0,000 mm 2,0 UV-I 156 W/m -5,2 C 0,2 C 0,0 km/h (0 Bft) 0,00 %
19.02.2015 13:00 1,1 C 63 % 1032,4 hPa 0,0 l/m 0,1 km/h (0 Bft) N 0,00 h 0,000 mm 2,0 UV-I 228 W/m -5,1 C 1,1 C 1,0 km/h (0 Bft) 0,00 %
19.02.2015 14:00 1,2 C 64 % 1031,5 hPa 0,0 l/m 0,0 km/h (0 Bft) NW 0,00 h 0,000 mm 2,0 UV-I 161 W/m -4,9 C 1,2 C 0,0 km/h (0 Bft) 0,00 %
19.02.2015 15:00 1,0 C 65 % 1030,8 hPa 0,0 l/m 0,6 km/h (0 Bft) N 0,75 h 0,000 mm 1,0 UV-I 181 W/m -4,8 C 1,0 C 1,0 km/h (0 Bft) 0,00 %
19.02.2015 16:00 1,3 C 64 % 1030,1 hPa 0,0 l/m 0,0 km/h (0 Bft) N 1,00 h 0,000 mm 1,0 UV-I 164 W/m -4,8 C 1,3 C 0,0 km/h (0 Bft) 0,00 %
19.02.2015 17:00 -0,0 C 72 % 1029,9 hPa 0,0 l/m 0,0 km/h (0 Bft) N 0,50 h 0,000 mm 0,0 UV-I 20 W/m -4,6 C -0,0 C 0,0 km/h (0 Bft) 0,00 %
19.02.2015 18:00 -1,6 C 79 % 1029,8 hPa 0,0 l/m 0,0 km/h (0 Bft) N 0,00 h 0,000 mm 0,0 UV-I 0 W/m -4,7 C -1,6 C 0,0 km/h (0 Bft) 0,00 %
19.02.2015 19:00 -2,2 C 82 % 1029,6 hPa 0,0 l/m 0,0 km/h (0 Bft) N 0,00 h 0,000 mm 0,0 UV-I 0 W/m -4,9 C -2,2 C 0,0 km/h (0 Bft) 0,00 %
19.02.2015 20:00 -2,7 C 80 % 1029,2 hPa 0,0 l/m 0,0 km/h (0 Bft) N 0,00 h 0,000 mm 0,0 UV-I 0 W/m -5,7 C -2,7 C 0,0 km/h (0 Bft) 0,00 %
19.02.2015 21:00 -3,2 C 80 % 1028,9 hPa 0,0 l/m 0,0 km/h (0 Bft) N 0,00 h 0,000 mm 0,0 UV-I 0 W/m -6,1 C -3,2 C 0,0 km/h (0 Bft) 0,00 %
19.02.2015 22:00 -3,7 C 81 % 1028,5 hPa 0,0 l/m 0,0 km/h (0 Bft) N 0,00 h 0,000 mm 0,0 UV-I 0 W/m -6,4 C -3,7 C 0,0 km/h (0 Bft) 0,00 %
19.02.2015 23:00 -4,1 C 81 % 1028,0 hPa 0,0 l/m 0,0 km/h (0 Bft) N 0,00 h 0,000 mm 0,0 UV-I 0 W/m -6,8 C -4,1 C 0,0 km/h (0 Bft) 0,00 %
20.02.2015 00:00 -4,2 C 82 % 1027,7 hPa 0,0 l/m 0,0 km/h (0 Bft) N 0,00 h 0,000 mm 0,0 UV-I 0 W/m -6,8 C -4,2 C 0,0 km/h (0 Bft) 0,00 %
20.02.2015 01:00 -4,3 C 81 % 1027,3 hPa 0,0 l/m 0,0 km/h (0 Bft) N 0,00 h 0,000 mm 0,0 UV-I 0 W/m -7,0 C -4,3 C 0,0 km/h (0 Bft) 0,00 %
20.02.2015 02:00 -4,8 C 82 % 1026,8 hPa 0,0 l/m 0,0 km/h (0 Bft) N 0,00 h 0,000 mm 0,0 UV-I 0 W/m -7,4 C -4,8 C 0,0 km/h (0 Bft) 0,00 %
20.02.2015 03:00 -4,8 C 81 % 1026,3 hPa 0,0 l/m 0,0 km/h (0 Bft) N 0,00 h 0,000 mm 0,0 UV-I 0 W/m -7,5 C -4,8 C 0,0 km/h (0 Bft) 0,00 %
20.02.2015 04:00 -5,0 C 81 % 1025,9 hPa 0,0 l/m 0,0 km/h (0 Bft) N 0,00 h 0,000 mm 0,0 UV-I 0 W/m -7,8 C -5,0 C 0,0 km/h (0 Bft) 0,00 %
20.02.2015 05:00 -5,2 C 81 % 1025,6 hPa 0,0 l/m 0,0 km/h (0 Bft) N 0,00 h 0,000 mm 0,0 UV-I 0 W/m -7,9 C -5,2 C 0,0 km/h (0 Bft) 0,00 %
20.02.2015 06:00 -5,4 C 80 % 1025,4 hPa 0,0 l/m 0,0 km/h (0 Bft) N 0,00 h 0,000 mm 0,0 UV-I 0 W/m -8,2 C -5,4 C 0,0 km/h (0 Bft) 0,00 %
20.02.2015 07:00 -5,3 C 81 % 1025,4 hPa 0,0 l/m 0,0 km/h (0 Bft) N 0,00 h 0,000 mm 0,0 UV-I 16 W/m -8,1 C -5,3 C 0,0 km/h (0 Bft) 0,00 %
20.02.2015 08:00 -3,2 C 81 % 1024,8 hPa 0,0 l/m 0,1 km/h (0 Bft) N 0,00 h 0,000 mm 1,0 UV-I 71 W/m -5,9 C -3,2 C 1,0 km/h (0 Bft) 0,00 %
20.02.2015 09:00 -2,0 C 83 % 1024,2 hPa 0,0 l/m 0,0 km/h (0 Bft) N 0,00 h 0,000 mm 1,7 UV-I 143 W/m -4,6 C -2,0 C 0,0 km/h (0 Bft) 0,00 %
20.02.2015 10:00 -1,3 C 82 % 1023,5 hPa 0,0 l/m 0,0 km/h (0 Bft) N 0,00 h 0,000 mm 2,0 UV-I 200 W/m -4,0 C -1,3 C 0,0 km/h (0 Bft) 0,00 %
20.02.2015 11:00 0,0 C 79 % 1022,5 hPa 0,0 l/m 0,0 km/h (0 Bft) N 0,00 h 0,000 mm 2,0 UV-I 227 W/m -3,2 C 0,0 C 0,0 km/h (0 Bft) 0,00 %
20.02.2015 12:00 1,5 C 76 % 1020,8 hPa 0,0 l/m 0,0 km/h (0 Bft) N 1,00 h 0,000 mm 2,0 UV-I 321 W/m -2,3 C 1,5 C 0,0 km/h (0 Bft) 0,00 %
20.02.2015 13:00 3,5 C 68 % 1019,3 hPa 0,0 l/m 0,2 km/h (0 Bft) N 0,75 h 0,000 mm 2,0 UV-I 278 W/m -1,9 C 3,5 C 1,0 km/h (0 Bft) 0,00 %
20.02.2015 14:00 4,5 C 66 % 1017,7 hPa 0,0 l/m 0,0 km/h (0 Bft) N 1,00 h 0,000 mm 1,7 UV-I 295 W/m -1,4 C 4,5 C 0,0 km/h (0 Bft) 0,00 %
20.02.2015 15:00 5,3 C 62 % 1016,3 hPa 0,0 l/m 0,0 km/h (0 Bft) N 1,00 h 0,000 mm 1,0 UV-I 280 W/m -1,5 C 5,3 C 0,0 km/h (0 Bft) 0,00 %
20.02.2015 16:00 5,8 C 58 % 1015,0 hPa 0,0 l/m 0,0 km/h (0 Bft) N 1,00 h 0,000 mm 1,0 UV-I 210 W/m -1,9 C 5,8 C 0,0 km/h (0 Bft) 0,00 %
20.02.2015 17:00 3,9 C 65 % 1014,2 hPa 0,0 l/m 0,0 km/h (0 Bft) N 0,25 h 0,000 mm 0,0 UV-I 11 W/m -2,0 C 3,9 C 0,0 km/h (0 Bft) 0,00 %
20.02.2015 18:00 1,4 C 71 % 1013,8 hPa 0,0 l/m 0,0 km/h (0 Bft) N 0,00 h 0,000 mm 0,0 UV-I 0 W/m -3,3 C 1,4 C 0,0 km/h (0 Bft) 0,00 %
20.02.2015 19:00 0,0 C 75 % 1012,8 hPa 0,0 l/m 0,0 km/h (0 Bft) N 0,00 h 0,000 mm 0,0 UV-I 0 W/m -3,9 C 0,0 C 0,0 km/h (0 Bft) 0,00 %
20.02.2015 20:00 -0,6 C 79 % 1011,9 hPa 0,0 l/m 0,0 km/h (0 Bft) N 0,00 h 0,000 mm 0,0 UV-I 0 W/m -3,9 C -0,6 C 0,0 km/h (0 Bft) 0,00 %
20.02.2015 21:00 -1,3 C 82 % 1010,9 hPa 0,0 l/m 0,0 km/h (0 Bft) N 0,00 h 0,000 mm 0,0 UV-I 0 W/m -4,0 C -1,3 C 0,0 km/h (0 Bft) 0,00 %
20.02.2015 22:00 -0,9 C 81 % 1009,3 hPa 0,0 l/m 0,0 km/h (0 Bft) N 0,00 h 0,000 mm 0,0 UV-I 0 W/m -3,7 C -0,9 C 0,0 km/h (0 Bft) 0,00 %
20.02.2015 23:00 -0,5 C 78 % 1008,0 hPa 0,0 l/m 0,0 km/h (0 Bft) N 0,00 h 0,000 mm 0,0 UV-I 0 W/m -3,8 C -0,5 C 0,0 km/h (0 Bft) 0,00 %
21.02.2015 00:00 -1,5 C 82 % 1007,0 hPa 0,0 l/m 0,0 km/h (0 Bft) N 0,00 h 0,000 mm 0,0 UV-I 0 W/m -4,1 C -1,5 C 0,0 km/h (0 Bft) 0,00 %
21.02.2015 01:00 -2,2 C 83 % 1006,0 hPa 0,0 l/m 0,0 km/h (0 Bft) N 0,00 h 0,000 mm 0,0 UV-I 0 W/m -4,7 C -2,2 C 0,0 km/h (0 Bft) 0,00 %
21.02.2015 02:00 -2,8 C 80 % 1005,2 hPa 0,0 l/m 0,0 km/h (0 Bft) N 0,00 h 0,000 mm 0,0 UV-I 0 W/m -5,7 C -2,8 C 0,0 km/h (0 Bft) 0,00 %
21.02.2015 03:00 -2,8 C 80 % 1004,0 hPa 0,0 l/m 0,0 km/h (0 Bft) N 0,00 h 0,000 mm 0,0 UV-I 0 W/m -5,8 C -2,8 C 0,0 km/h (0 Bft) 0,00 %
21.02.2015 04:00 -3,3 C 81 % 1003,3 hPa 0,0 l/m 0,0 km/h (0 Bft) N 0,00 h 0,000 mm 0,0 UV-I 0 W/m -6,2 C -3,3 C 0,0 km/h (0 Bft) 0,00 %
21.02.2015 05:00 -3,6 C 82 % 1002,8 hPa 0,0 l/m 0,0 km/h (0 Bft) N 0,00 h 0,000 mm 0,0 UV-I 0 W/m -6,2 C -3,6 C 0,0 km/h (0 Bft) 0,00 %
21.02.2015 06:00 -3,7 C 82 % 1002,5 hPa 0,0 l/m 0,0 km/h (0 Bft) N 0,00 h 0,000 mm 0,0 UV-I 0 W/m -6,3 C -3,7 C 0,0 km/h (0 Bft) 0,00 %
21.02.2015 07:00 -3,4 C 81 % 1002,7 hPa 0,0 l/m 0,0 km/h (0 Bft) N 0,00 h 0,000 mm 0,0 UV-I 15 W/m -6,1 C -3,4 C 0,0 km/h (0 Bft) 0,00 %
21.02.2015 08:00 -2,1 C 84 % 1002,7 hPa 0,0 l/m 0,0 km/h (0 Bft) N 0,00 h 0,000 mm 1,0 UV-I 66 W/m -4,5 C -2,1 C 0,0 km/h (0 Bft) 0,00 %
21.02.2015 09:00 1,5 C 72 % 1002,1 hPa 0,0 l/m 0,0 km/h (0 Bft) N 0,00 h 0,000 mm 2,0 UV-I 138 W/m -3,0 C 1,5 C 0,0 km/h (0 Bft) 0,00 %
21.02.2015 10:00 3,0 C 69 % 1001,4 hPa 0,0 l/m 1,1 km/h (1 Bft) NO 0,00 h 0,000 mm 2,0 UV-I 156 W/m -2,1 C 3,0 C 2,0 km/h (1 Bft) 0,00 %
21.02.2015 11:00 2,8 C 71 % 1001,3 hPa 0,0 l/m 1,0 km/h (0 Bft) O-NO 0,50 h 0,000 mm 2,0 UV-I 290 W/m -1,9 C 2,8 C 2,0 km/h (1 Bft) 0,00 %
21.02.2015 12:00 4,6 C 61 % 1000,4 hPa 0,0 l/m 0,4 km/h (0 Bft) O 1,00 h 0,000 mm 2,0 UV-I 355 W/m -2,4 C 4,6 C 1,0 km/h (0 Bft) 0,00 %
21.02.2015 13:00 6,1 C 57 % 999,2 hPa 0,0 l/m 1,8 km/h (1 Bft) O-SO 1,00 h 0,000 mm 2,0 UV-I 337 W/m -1,9 C 6,1 C 4,0 km/h (1 Bft) 0,00 %
21.02.2015 14:00 6,7 C 56 % 998,1 hPa 0,0 l/m 4,6 km/h (1 Bft) O 1,00 h 0,000 mm 1,7 UV-I 255 W/m -1,6 C 6,7 C 6,9 km/h (2 Bft) 0,00 %
21.02.2015 15:00 7,1 C 55 % 997,3 hPa 0,0 l/m 6,5 km/h (2 Bft) O 1,00 h 0,000 mm 1,0 UV-I 247 W/m -1,3 C 6,5 C 7,9 km/h (2 Bft) 0,00 %
21.02.2015 16:00 6,9 C 55 % 996,7 hPa 0,0 l/m 3,3 km/h (1 Bft) O 1,00 h 0,000 mm 1,0 UV-I 145 W/m -1,5 C 6,9 C 5,9 km/h (2 Bft) 0,00 %
21.02.2015 17:00 4,7 C 61 % 997,0 hPa 0,0 l/m 0,4 km/h (0 Bft) O-SO 0,00 h 0,000 mm 0,0 UV-I 0 W/m -2,3 C 4,7 C 1,0 km/h (0 Bft) 0,00 %
21.02.2015 18:00 3,3 C 66 % 997,5 hPa 0,0 l/m 0,0 km/h (0 Bft) N 0,00 h 0,000 mm 0,0 UV-I 0 W/m -2,5 C 3,3 C 0,0 km/h (0 Bft) 0,00 %
21.02.2015 19:00 3,4 C 64 % 997,6 hPa 0,0 l/m 0,0 km/h (0 Bft) N 0,00 h 0,000 mm 0,0 UV-I 0 W/m -2,7 C 3,4 C 0,0 km/h (0 Bft) 0,00 %
21.02.2015 20:00 2,7 C 63 % 997,8 hPa 0,0 l/m 0,0 km/h (0 Bft) N 0,00 h 0,000 mm 0,0 UV-I 0 W/m -3,6 C 2,7 C 0,0 km/h (0 Bft) 0,00 %
21.02.2015 21:00 1,6 C 66 % 998,3 hPa 0,0 l/m 0,0 km/h (0 Bft) N 0,00 h 0,000 mm 0,0 UV-I 0 W/m -4,0 C 1,6 C 0,0 km/h (0 Bft) 0,00 %
21.02.2015 22:00 1,1 C 70 % 999,3 hPa 0,0 l/m 0,0 km/h (0 Bft) N 0,00 h 0,000 mm 0,0 UV-I 0 W/m -3,8 C 1,1 C 0,0 km/h (0 Bft) 0,00 %
21.02.2015 23:00 0,6 C 73 % 999,7 hPa 0,0 l/m 0,0 km/h (0 Bft) N 0,00 h 0,000 mm 0,0 UV-I 0 W/m -3,7 C 0,6 C 0,0 km/h (0 Bft) 0,00 %
22.02.2015 00:00 0,9 C 71 % 999,8 hPa 0,0 l/m 0,0 km/h (0 Bft) N 0,00 h 0,000 mm 0,0 UV-I 0 W/m -3,7 C 0,9 C 0,0 km/h (0 Bft) 0,00 %
22.02.2015 01:00 1,0 C 70 % 1000,2 hPa 0,0 l/m 0,2 km/h (0 Bft) N 0,00 h 0,000 mm 0,0 UV-I 0 W/m -3,9 C 1,0 C 1,0 km/h (0 Bft) 0,00 %
22.02.2015 02:00 1,3 C 69 % 1000,6 hPa 0,0 l/m 0,3 km/h (0 Bft) N 0,00 h 0,000 mm 0,0 UV-I 0 W/m -3,7 C 1,3 C 2,0 km/h (1 Bft) 0,00 %
22.02.2015 03:00 0,8 C 71 % 1001,2 hPa 0,0 l/m 0,3 km/h (0 Bft) W-SW 0,00 h 0,000 mm 0,0 UV-I 0 W/m -3,9 C 0,8 C 1,0 km/h (0 Bft) 0,00 %
22.02.2015 04:00 0,7 C 72 % 1001,8 hPa 0,0 l/m 0,1 km/h (0 Bft) N 0,00 h 0,000 mm 0,0 UV-I 0 W/m -3,8 C 0,7 C 1,0 km/h (0 Bft) 0,00 %
22.02.2015 05:00 0,7 C 73 % 1002,3 hPa 0,0 l/m 0,1 km/h (0 Bft) N 0,00 h 0,000 mm 0,0 UV-I 0 W/m -3,6 C 0,7 C 1,0 km/h (0 Bft) 0,00 %
22.02.2015 06:00 0,6 C 74 % 1003,0 hPa 0,0 l/m 0,0 km/h (0 Bft) N 0,00 h 0,000 mm 0,0 UV-I 0 W/m -3,5 C 0,6 C 0,0 km/h (0 Bft) 0,00 %
22.02.2015 07:00 0,6 C 75 % 1004,0 hPa 0,0 l/m 0,0 km/h (0 Bft) N 0,00 h 0,000 mm 0,0 UV-I 15 W/m -3,4 C 0,6 C 0,0 km/h (0 Bft) 0,00 %
22.02.2015 08:00 1,8 C 72 % 1004,8 hPa 0,0 l/m 0,0 km/h (0 Bft) N 0,00 h 0,000 mm 1,0 UV-I 85 W/m -2,7 C 1,8 C 0,0 km/h (0 Bft) 0,00 %
22.02.2015 09:00 3,2 C 71 % 1005,2 hPa 0,0 l/m 1,8 km/h (1 Bft) W-SW 0,00 h 0,000 mm 2,0 UV-I 157 W/m -1,5 C 3,2 C 4,0 km/h (1 Bft) 0,00 %
22.02.2015 10:00 3,7 C 71 % 1004,8 hPa 0,0 l/m 1,0 km/h (0 Bft) W 0,00 h 0,000 mm 2,0 UV-I 163 W/m -1,1 C 3,7 C 3,0 km/h (1 Bft) 0,00 %
22.02.2015 11:00 4,4 C 68 % 1005,4 hPa 0,0 l/m 0,6 km/h (0 Bft) W-NW 0,00 h 0,000 mm 2,0 UV-I 161 W/m -1,0 C 4,4 C 3,0 km/h (1 Bft) 0,00 %
22.02.2015 12:00 4,6 C 68 % 1005,7 hPa 0,0 l/m 1,4 km/h (1 Bft) SW 0,00 h 0,000 mm 1,0 UV-I 142 W/m -0,8 C 4,6 C 4,0 km/h (1 Bft) 0,00 %
22.02.2015 13:00 5,0 C 66 % 1005,6 hPa 0,0 l/m 3,7 km/h (1 Bft) W-SW 0,00 h 0,000 mm 2,0 UV-I 174 W/m -0,8 C 5,0 C 5,9 km/h (2 Bft) 0,00 %
22.02.2015 14:00 4,8 C 67 % 1006,1 hPa 0,0 l/m 3,5 km/h (1 Bft) W-SW 0,00 h 0,000 mm 1,0 UV-I 130 W/m -0,8 C 4,8 C 6,9 km/h (2 Bft) 0,00 %
22.02.2015 15:00 4,0 C 74 % 1007,1 hPa 0,0 l/m 0,8 km/h (0 Bft) SW 0,00 h 0,000 mm 1,0 UV-I 59 W/m -0,2 C 4,0 C 2,0 km/h (1 Bft) 0,00 %
22.02.2015 16:00 2,9 C 80 % 1008,0 hPa 0,3 l/m 0,1 km/h (0 Bft) O-SO 0,00 h 0,000 mm 0,0 UV-I 27 W/m -0,1 C 2,9 C 1,0 km/h (0 Bft) 0,00 %
22.02.2015 17:00 2,0 C 79 % 1009,0 hPa 0,0 l/m 0,4 km/h (0 Bft) N 0,00 h 0,000 mm 0,0 UV-I 2 W/m -1,2 C 2,0 C 2,0 km/h (1 Bft) 0,00 %
22.02.2015 18:00 1,4 C 82 % 1009,8 hPa 0,0 l/m 0,3 km/h (0 Bft) N 0,00 h 0,000 mm 0,0 UV-I 0 W/m -1,4 C 1,4 C 2,0 km/h (1 Bft) 0,00 %
22.02.2015 19:00 1,5 C 81 % 1010,4 hPa 0,3 l/m 0,2 km/h (0 Bft) N 0,00 h 0,000 mm 0,0 UV-I 0 W/m -1,4 C 1,5 C 1,0 km/h (0 Bft) 0,00 %
22.02.2015 20:00 1,4 C 82 % 1010,4 hPa 0,3 l/m 0,0 km/h (0 Bft) N 0,00 h 0,000 mm 0,0 UV-I 0 W/m -1,4 C 1,4 C 0,0 km/h (0 Bft) 0,00 %
22.02.2015 21:00 1,4 C 83 % 1010,3 hPa 0,0 l/m 0,1 km/h (0 Bft) N 0,00 h 0,000 mm 0,0 UV-I 0 W/m -1,2 C 1,4 C 1,0 km/h (0 Bft) 0,00 %
22.02.2015 22:00 1,3 C 83 % 1009,8 hPa 0,0 l/m 0,0 km/h (0 Bft) N 0,00 h 0,000 mm 0,0 UV-I 0 W/m -1,3 C 1,3 C 0,0 km/h (0 Bft) 0,00 %
22.02.2015 23:00 1,3 C 84 % 1009,1 hPa 0,0 l/m 0,0 km/h (0 Bft) N 0,00 h 0,000 mm 0,0 UV-I 0 W/m -1,2 C 1,3 C 0,0 km/h (0 Bft) 0,00 %
Min-Datum _ 16.02.15 16.02.15 21.02.15 - 16.02.15 - - - - - 16.02.15 16.02.15 16.02.15 16.02.15
_ Min-Zeit 07:15 16:45 17:00 - 00:00 - - - - - 07:15 07:15 00:00 00:00
Minimum _ -5,8 C 52 % 996,5 hPa - 0,0 km/h (0 Bft) - - - - - -8,5 C -5,8 C 0,0 km/h (0 Bft) 0,00 %
Max-Datum _ 16.02.15 17.02.15 18.02.15 16.02.15 21.02.15 - 16.02.15 16.02.15 16.02.15 17.02.15 22.02.15 16.02.15 16.02.15 16.02.15
_ Max-Zeit 16:45 08:00 09:15 10:00 15:15 - 13:30 00:00 09:30 11:45 16:15 16:45 14:15 00:00
Maximum _ 8,4 C 85 % 1042,7 hPa 0,3 l/m 8,3 km/h
O (2 Bft)
- 0,25 h 0,000 mm 2,0 UV-I 475 W/m -0,0 C 8,4 C 11,9 km/h
O-SO (2 Bft)
0,00 %
Durchschnitt _ 0,2 C 74 % 1021,1 hPa #1,5 l/m 0,4 km/h (0 Bft) O-SO #23:45 h #0,000 mm 1,5 UV-I 159 W/m -3,9 C 0,2 C 0,8 km/h (0 Bft) 0,00 %